createdAt,value
2023-01-19T00:01:25.992Z,1.72
2023-01-19T00:03:53.628Z,1.71
2023-01-19T00:06:21.325Z,1.71
2023-01-19T00:08:50.203Z,1.71
2023-01-19T00:11:18.091Z,1.70
2023-01-19T00:13:53.477Z,1.72
2023-01-19T00:16:23.217Z,1.76
2023-01-19T00:18:52.347Z,1.76
2023-01-19T00:21:21.654Z,1.75
2023-01-19T00:23:51.171Z,1.73
2023-01-19T00:26:21.943Z,1.69
2023-01-19T00:28:50.328Z,1.68
2023-01-19T00:31:20.697Z,1.68
2023-01-19T00:33:49.221Z,1.65
2023-01-19T00:36:17.043Z,1.65
2023-01-19T00:38:44.930Z,1.67
2023-01-19T00:41:12.578Z,1.68
2023-01-19T00:43:40.209Z,1.71
2023-01-19T00:46:07.940Z,1.74
2023-01-19T00:48:35.732Z,1.79
2023-01-19T00:51:03.614Z,1.82
2023-01-19T00:53:32.471Z,1.86
2023-01-19T00:56:00.257Z,1.89
2023-01-19T00:58:27.972Z,1.91
2023-01-19T01:00:57.843Z,1.93
2023-01-19T01:03:28.072Z,1.95
2023-01-19T01:05:56.044Z,1.95
2023-01-19T01:08:23.837Z,1.93
2023-01-19T01:10:51.940Z,1.92
2023-01-19T01:13:21.695Z,1.90
2023-01-19T01:15:54.184Z,1.89
2023-01-19T01:18:22.484Z,1.90
2023-01-19T01:20:50.251Z,1.89
2023-01-19T01:23:22.605Z,1.89
2023-01-19T01:25:50.272Z,1.89
2023-01-19T01:28:18.018Z,1.89
2023-01-19T01:30:45.684Z,1.92
2023-01-19T01:33:13.743Z,1.94
2023-01-19T01:35:41.478Z,1.96
2023-01-19T01:38:09.385Z,1.99
2023-01-19T01:40:40.406Z,2.00
2023-01-19T01:43:13.291Z,2.01
2023-01-19T01:45:41.995Z,2.02
2023-01-19T01:48:30.870Z,2.04
2023-01-19T01:51:22.760Z,2.05
2023-01-19T01:54:10.249Z,2.07
2023-01-19T01:56:41.565Z,2.07
2023-01-19T01:59:26.202Z,2.04
2023-01-19T02:02:15.666Z,2.05
2023-01-19T02:05:06.379Z,2.07
2023-01-19T02:08:05.862Z,2.08
2023-01-19T02:10:49.627Z,2.11
2023-01-19T02:13:21.325Z,2.12
2023-01-19T02:15:51.872Z,2.13
2023-01-19T02:18:22.342Z,2.14
2023-01-19T02:21:21.854Z,2.16
2023-01-19T02:24:02.952Z,2.19
2023-01-19T02:26:38.945Z,2.20
2023-01-19T02:29:12.771Z,2.22
2023-01-19T02:31:41.041Z,2.23
2023-01-19T02:34:11.472Z,2.26
2023-01-19T02:36:50.231Z,2.28
2023-01-19T02:39:21.644Z,2.28
2023-01-19T02:41:55.692Z,2.29
2023-01-19T02:44:25.153Z,2.32
2023-01-19T02:46:56.851Z,2.35
2023-01-19T02:49:29.755Z,2.37
2023-01-19T02:51:59.118Z,2.38
2023-01-19T02:54:58.637Z,2.39
2023-01-19T02:57:43.702Z,2.41
2023-01-19T03:00:23.215Z,2.44
2023-01-19T03:03:10.417Z,2.46
2023-01-19T03:05:57.086Z,2.48
2023-01-19T03:08:33.042Z,2.49
2023-01-19T03:11:08.253Z,2.50
2023-01-19T03:14:00.426Z,2.51
2023-01-19T03:16:42.135Z,2.50
2023-01-19T03:19:19.643Z,2.50
2023-01-19T03:21:52.120Z,2.49
2023-01-19T03:24:22.633Z,2.50
2023-01-19T03:26:58.678Z,2.50
2023-01-19T03:29:34.844Z,2.50
2023-01-19T03:32:09.387Z,2.50
2023-01-19T03:34:39.996Z,2.49
2023-01-19T03:37:10.361Z,2.49
2023-01-19T03:39:38.123Z,2.48
2023-01-19T03:42:10.756Z,2.47
2023-01-19T03:44:40.813Z,2.46
2023-01-19T03:47:11.160Z,2.45
2023-01-19T03:49:41.599Z,2.43
2023-01-19T03:52:09.392Z,2.43
2023-01-19T03:54:37.167Z,2.43
2023-01-19T03:57:04.908Z,2.42
2023-01-19T03:59:32.593Z,2.40
2023-01-19T04:02:00.316Z,2.41
2023-01-19T04:04:27.979Z,2.41
2023-01-19T04:06:55.617Z,2.42
2023-01-19T04:09:23.263Z,2.43
2023-01-19T04:11:51.396Z,2.43
2023-01-19T04:14:19.136Z,2.40
2023-01-19T04:16:46.767Z,2.38
2023-01-19T04:19:14.511Z,2.36
2023-01-19T04:21:42.220Z,2.37
2023-01-19T04:24:10.737Z,2.40
2023-01-19T04:26:38.480Z,2.42
2023-01-19T04:29:06.267Z,2.43
2023-01-19T04:31:35.741Z,2.44
2023-01-19T04:34:04.028Z,2.46
2023-01-19T04:36:31.694Z,2.48
2023-01-19T04:38:59.350Z,2.50
2023-01-19T04:41:26.940Z,2.52
2023-01-19T04:43:54.678Z,2.52
2023-01-19T04:46:22.367Z,2.53
2023-01-19T04:48:50.163Z,2.52
2023-01-19T04:51:17.928Z,2.51
2023-01-19T04:53:45.883Z,2.48
2023-01-19T04:56:13.597Z,2.46
2023-01-19T04:58:41.863Z,2.44
2023-01-19T05:01:09.935Z,2.44
2023-01-19T05:03:37.757Z,2.42
2023-01-19T05:06:06.480Z,2.40
2023-01-19T05:08:34.133Z,2.40
2023-01-19T05:11:01.857Z,2.40
2023-01-19T05:13:29.552Z,2.39
2023-01-19T05:15:57.315Z,2.38
2023-01-19T05:18:24.932Z,2.38
2023-01-19T05:20:52.603Z,2.38
2023-01-19T05:23:20.733Z,2.37
2023-01-19T05:25:48.417Z,2.35
2023-01-19T05:28:17.074Z,2.33
2023-01-19T05:30:44.719Z,2.33
2023-01-19T05:33:12.453Z,2.32
2023-01-19T05:35:40.098Z,2.32
2023-01-19T05:38:07.724Z,2.33
2023-01-19T05:40:35.404Z,2.34
2023-01-19T05:43:05.445Z,2.36
2023-01-19T05:45:33.754Z,2.38
2023-01-19T05:48:02.020Z,2.39
2023-01-19T05:50:29.654Z,2.42
2023-01-19T05:52:57.909Z,2.43
2023-01-19T05:55:26.675Z,2.44
2023-01-19T05:57:54.831Z,2.44
2023-01-19T06:00:22.656Z,2.45
2023-01-19T06:02:50.727Z,2.48
2023-01-19T06:05:18.473Z,2.49
2023-01-19T06:07:46.393Z,2.51
2023-01-19T06:10:14.027Z,2.52
2023-01-19T06:12:41.729Z,2.54
2023-01-19T06:15:09.823Z,2.56
2023-01-19T06:17:37.639Z,2.57
2023-01-19T06:20:06.945Z,2.58
2023-01-19T06:22:34.897Z,2.59
2023-01-19T06:25:02.829Z,2.60
2023-01-19T06:27:30.624Z,2.60
2023-01-19T06:29:58.230Z,2.61
2023-01-19T06:32:25.914Z,2.60
2023-01-19T06:34:54.209Z,2.57
2023-01-19T06:37:22.235Z,2.55
2023-01-19T06:39:49.855Z,2.56
2023-01-19T06:42:17.526Z,2.58
2023-01-19T06:44:47.656Z,2.59
2023-01-19T06:47:16.711Z,2.61
2023-01-19T06:49:44.467Z,2.61
2023-01-19T06:52:16.022Z,2.59
2023-01-19T06:54:46.212Z,2.60
2023-01-19T06:57:14.386Z,2.62
2023-01-19T06:59:42.562Z,2.64
2023-01-19T07:02:27.331Z,2.65
2023-01-19T07:04:56.695Z,2.64
2023-01-19T07:07:24.566Z,2.62
2023-01-19T07:09:54.055Z,2.62
2023-01-19T07:12:22.808Z,2.61
2023-01-19T07:14:51.416Z,2.62
2023-01-19T07:17:19.838Z,2.63
2023-01-19T07:19:47.789Z,2.65
2023-01-19T07:22:15.695Z,2.66
2023-01-19T07:24:43.504Z,2.67
2023-01-19T07:27:16.278Z,2.67
2023-01-19T07:29:44.111Z,2.66
2023-01-19T07:32:12.599Z,2.63
2023-01-19T07:34:40.410Z,2.62
2023-01-19T07:37:08.289Z,2.63
2023-01-19T07:39:36.824Z,2.59
2023-01-19T07:42:05.086Z,2.57
2023-01-19T07:44:33.074Z,2.58
2023-01-19T07:47:00.868Z,2.62
2023-01-19T07:49:28.797Z,2.64
2023-01-19T07:51:56.758Z,2.68
2023-01-19T07:54:24.464Z,2.72
2023-01-19T07:56:55.232Z,2.77
2023-01-19T07:59:26.115Z,2.81
2023-01-19T08:01:54.214Z,2.84
2023-01-19T08:04:22.259Z,2.85
2023-01-19T08:06:50.307Z,2.83
2023-01-19T08:09:18.071Z,2.86
2023-01-19T08:11:45.812Z,2.90
2023-01-19T08:14:13.476Z,2.93
2023-01-19T08:16:41.138Z,2.99
2023-01-19T08:19:08.912Z,3.04
2023-01-19T08:21:39.088Z,3.09
2023-01-19T08:24:07.786Z,3.12
2023-01-19T08:26:36.480Z,3.15
2023-01-19T08:29:08.721Z,3.16
2023-01-19T08:31:40.087Z,3.17
2023-01-19T08:34:08.452Z,3.20
2023-01-19T08:36:36.083Z,3.21
2023-01-19T08:39:03.825Z,3.24
2023-01-19T08:41:32.413Z,3.27
2023-01-19T08:44:00.124Z,3.29
2023-01-19T08:46:28.023Z,3.23
2023-01-19T08:48:56.109Z,3.12
2023-01-19T08:51:24.263Z,3.45
2023-01-19T08:53:52.038Z,3.86
2023-01-19T08:56:20.982Z,3.98
2023-01-19T08:58:59.500Z,3.99
2023-01-19T09:01:37.394Z,4.01
2023-01-19T09:04:05.578Z,4.02
2023-01-19T09:06:34.108Z,3.98
2023-01-19T09:09:01.768Z,3.97
2023-01-19T09:11:30.788Z,3.97
2023-01-19T09:13:58.690Z,3.96
2023-01-19T09:16:27.260Z,3.94
2023-01-19T09:18:55.330Z,3.92
2023-01-19T09:21:23.303Z,3.90
2023-01-19T09:23:51.715Z,3.89
2023-01-19T09:26:19.498Z,3.86
2023-01-19T09:28:47.151Z,3.83
2023-01-19T09:31:15.236Z,3.83
2023-01-19T09:33:43.072Z,3.81
2023-01-19T09:36:10.774Z,3.81
2023-01-19T09:38:38.520Z,3.78
2023-01-19T09:41:17.437Z,3.74
2023-01-19T09:43:51.440Z,3.69
2023-01-19T09:46:39.013Z,3.68
2023-01-19T09:49:13.289Z,3.68
2023-01-19T09:51:46.095Z,3.67
2023-01-19T09:54:22.952Z,3.62
2023-01-19T09:56:52.860Z,3.53
2023-01-19T09:59:28.289Z,3.37
2023-01-19T10:02:19.196Z,3.27
2023-01-19T10:05:26.495Z,3.22
2023-01-19T10:08:03.575Z,3.26
2023-01-19T10:10:32.417Z,3.33
2023-01-19T10:13:19.269Z,3.40
2023-01-19T10:16:02.853Z,3.45
2023-01-19T10:18:53.514Z,3.50
2023-01-19T10:21:43.601Z,3.51
2023-01-19T10:24:35.913Z,3.39
2023-01-19T10:27:10.368Z,3.30
2023-01-19T10:29:38.323Z,3.32
2023-01-19T10:32:26.063Z,3.41
2023-01-19T10:34:55.728Z,3.50
2023-01-19T10:37:34.477Z,3.56
2023-01-19T10:40:21.224Z,3.59
2023-01-19T10:42:48.997Z,3.63
2023-01-19T10:45:36.700Z,3.67
2023-01-19T10:48:08.219Z,3.69
2023-01-19T10:50:41.694Z,3.71
2023-01-19T10:53:22.447Z,3.70
2023-01-19T10:56:12.094Z,3.71
2023-01-19T10:58:40.697Z,3.75
2023-01-19T11:01:25.786Z,3.79
2023-01-19T11:03:57.075Z,3.85
2023-01-19T11:06:28.126Z,3.86
2023-01-19T11:09:20.561Z,3.85
2023-01-19T11:11:51.732Z,3.88
2023-01-19T11:14:24.783Z,3.87
2023-01-19T11:16:58.310Z,3.92
2023-01-19T11:19:30.016Z,3.97
2023-01-19T11:22:24.881Z,4.03
2023-01-19T11:24:53.082Z,4.05
2023-01-19T11:27:21.777Z,4.08
2023-01-19T11:29:58.904Z,4.08
2023-01-19T11:32:28.435Z,4.06
2023-01-19T11:34:56.610Z,4.06
2023-01-19T11:37:31.493Z,4.05
2023-01-19T11:40:02.810Z,4.05
2023-01-19T11:42:33.847Z,4.05
2023-01-19T11:45:19.853Z,4.04
2023-01-19T11:47:56.723Z,4.04
2023-01-19T11:50:34.727Z,4.01
2023-01-19T11:53:25.624Z,4.02
2023-01-19T11:56:14.036Z,4.04
2023-01-19T11:58:47.347Z,4.05
2023-01-19T12:01:38.499Z,4.05
2023-01-19T12:04:19.679Z,4.04
2023-01-19T12:06:53.076Z,4.05
2023-01-19T12:09:50.804Z,4.05
2023-01-19T12:12:27.307Z,4.05
2023-01-19T12:14:57.646Z,4.04
2023-01-19T12:17:33.477Z,4.02
2023-01-19T12:20:13.526Z,4.00
2023-01-19T12:22:50.716Z,3.95
2023-01-19T12:25:28.286Z,3.97
2023-01-19T12:27:57.607Z,3.98
2023-01-19T12:30:29.039Z,3.99
2023-01-19T12:33:29.170Z,4.00
2023-01-19T12:36:00.798Z,4.03
2023-01-19T12:39:00.326Z,4.05
2023-01-19T12:41:47.530Z,4.07
2023-01-19T12:44:21.999Z,4.07
2023-01-19T12:47:24.129Z,4.06
2023-01-19T12:49:56.494Z,4.03
2023-01-19T12:52:40.504Z,4.03
2023-01-19T12:55:14.818Z,4.03
2023-01-19T12:58:03.604Z,4.01
2023-01-19T13:00:41.107Z,4.00
2023-01-19T13:03:24.934Z,3.99
2023-01-19T13:05:55.238Z,3.97
2023-01-19T13:08:30.389Z,3.96
2023-01-19T13:11:09.547Z,3.97
2023-01-19T13:14:03.361Z,3.97
2023-01-19T13:16:31.062Z,3.96
2023-01-19T13:19:14.259Z,3.95
2023-01-19T13:21:47.452Z,3.95
2023-01-19T13:24:22.633Z,3.95
2023-01-19T13:26:50.282Z,3.94
2023-01-19T13:29:36.712Z,3.96
2023-01-19T13:32:18.690Z,3.97
2023-01-19T13:34:54.667Z,3.99
2023-01-19T13:37:25.886Z,3.97
2023-01-19T13:39:55.203Z,3.95
2023-01-19T13:42:33.182Z,3.95
2023-01-19T13:45:07.115Z,3.95
2023-01-19T13:47:42.000Z,3.94
2023-01-19T13:50:20.449Z,3.94
2023-01-19T13:52:50.798Z,3.93
2023-01-19T13:55:20.546Z,3.92
2023-01-19T13:57:50.327Z,3.89
2023-01-19T14:00:23.925Z,3.87
2023-01-19T14:03:08.497Z,3.87
2023-01-19T14:05:41.773Z,3.86
2023-01-19T14:08:12.896Z,3.85
2023-01-19T14:10:53.360Z,3.85
2023-01-19T14:13:41.634Z,3.84
2023-01-19T14:16:12.192Z,3.83
2023-01-19T14:18:39.863Z,3.78
2023-01-19T14:21:08.829Z,3.75
2023-01-19T14:23:36.687Z,3.76
2023-01-19T14:26:04.869Z,3.74
2023-01-19T14:28:35.324Z,3.73
2023-01-19T14:31:20.695Z,3.72
2023-01-19T14:33:51.717Z,3.72
2023-01-19T14:36:26.566Z,3.71
2023-01-19T14:38:59.402Z,3.70
2023-01-19T14:41:48.977Z,3.68
2023-01-19T14:44:38.802Z,3.67
2023-01-19T14:47:20.572Z,3.63
2023-01-19T14:49:48.371Z,3.61
2023-01-19T14:52:25.098Z,3.59
2023-01-19T14:54:55.586Z,3.60
2023-01-19T14:57:24.713Z,3.58
2023-01-19T14:59:52.892Z,3.56
2023-01-19T15:02:20.746Z,3.55
2023-01-19T15:04:48.763Z,3.54
2023-01-19T15:07:19.224Z,3.52
2023-01-19T15:09:48.153Z,3.51
2023-01-19T15:12:18.560Z,3.50
2023-01-19T15:14:49.711Z,3.48
2023-01-19T15:17:26.465Z,3.48
2023-01-19T15:19:55.404Z,3.48
2023-01-19T15:22:28.261Z,3.48
2023-01-19T15:24:59.889Z,3.47
2023-01-19T15:27:27.780Z,3.47
2023-01-19T15:29:55.492Z,3.48
2023-01-19T15:32:23.142Z,3.47
2023-01-19T15:34:50.814Z,3.44
2023-01-19T15:37:18.450Z,3.45
2023-01-19T15:39:47.458Z,3.45
2023-01-19T15:42:15.584Z,3.46
2023-01-19T15:44:44.995Z,3.45
2023-01-19T15:47:12.694Z,3.45
2023-01-19T15:49:40.329Z,3.44
2023-01-19T15:52:07.981Z,3.44
2023-01-19T15:54:35.631Z,3.44
2023-01-19T15:57:03.308Z,3.44
2023-01-19T15:59:31.155Z,3.44
2023-01-19T16:01:59.012Z,3.42
2023-01-19T16:04:26.858Z,3.38
2023-01-19T16:06:54.717Z,3.37
2023-01-19T16:09:22.347Z,3.37
2023-01-19T16:11:53.173Z,3.37
2023-01-19T16:14:20.920Z,3.34
2023-01-19T16:16:49.218Z,3.31
2023-01-19T16:19:17.043Z,3.31
2023-01-19T16:21:44.807Z,3.30
2023-01-19T16:24:12.585Z,3.29
2023-01-19T16:26:40.355Z,3.27
2023-01-19T16:29:10.749Z,3.25
2023-01-19T16:31:39.480Z,3.26
2023-01-19T16:34:10.097Z,3.27
2023-01-19T16:36:41.548Z,3.28
2023-01-19T16:39:13.661Z,3.27
2023-01-19T16:41:42.480Z,3.27
2023-01-19T16:44:12.072Z,3.26
2023-01-19T16:46:42.174Z,3.27
2023-01-19T16:49:14.240Z,3.27
2023-01-19T16:51:42.412Z,3.28
2023-01-19T16:54:15.338Z,3.28
2023-01-19T16:56:43.584Z,3.29
2023-01-19T16:59:12.937Z,3.29
2023-01-19T17:01:41.732Z,3.30
2023-01-19T17:04:09.948Z,3.30
2023-01-19T17:06:38.038Z,3.31
2023-01-19T17:09:15.047Z,3.32
2023-01-19T17:11:46.312Z,3.33
2023-01-19T17:15:19.190Z,3.35
2023-01-19T17:18:14.992Z,3.35
2023-01-19T17:20:42.654Z,3.34
2023-01-19T17:23:10.561Z,3.35
2023-01-19T17:25:38.382Z,3.35
2023-01-19T17:28:06.312Z,3.34
2023-01-19T17:30:34.111Z,3.34
2023-01-19T17:33:02.218Z,3.34
2023-01-19T17:35:30.188Z,3.35
2023-01-19T17:37:58.265Z,3.34
2023-01-19T17:40:26.068Z,3.32
2023-01-19T17:42:53.754Z,3.32
2023-01-19T17:45:21.668Z,3.33
2023-01-19T17:47:50.587Z,3.35
2023-01-19T17:50:20.963Z,3.35
2023-01-19T17:52:48.648Z,3.35
2023-01-19T17:55:18.251Z,3.36
2023-01-19T17:57:45.978Z,3.36
2023-01-19T18:00:15.023Z,3.37
2023-01-19T18:02:43.314Z,3.37
2023-01-19T18:05:12.637Z,3.34
2023-01-19T18:07:40.807Z,3.31
2023-01-19T18:10:09.571Z,3.31
2023-01-19T18:12:37.485Z,3.30
2023-01-19T18:15:08.711Z,3.30
2023-01-19T18:17:36.430Z,3.31
2023-01-19T18:20:05.319Z,3.32
2023-01-19T18:22:33.491Z,3.31
2023-01-19T18:25:01.639Z,3.31
2023-01-19T18:27:29.365Z,3.29
2023-01-19T18:29:57.057Z,3.29
2023-01-19T18:32:27.106Z,3.30
2023-01-19T18:34:54.903Z,3.30
2023-01-19T18:37:22.663Z,3.30
2023-01-19T18:39:50.460Z,3.29
2023-01-19T18:42:18.141Z,3.27
2023-01-19T18:44:45.795Z,3.24
2023-01-19T18:47:13.446Z,3.21
2023-01-19T18:49:41.133Z,3.20
2023-01-19T18:52:08.895Z,3.19
2023-01-19T18:54:36.492Z,3.18
2023-01-19T18:57:04.183Z,3.17
2023-01-19T18:59:31.853Z,3.17
2023-01-19T19:02:01.671Z,3.15
2023-01-19T19:04:29.625Z,3.12
2023-01-19T19:06:57.306Z,3.09
2023-01-19T19:09:25.100Z,3.09
2023-01-19T19:11:52.766Z,3.09
2023-01-19T19:14:20.493Z,3.08
2023-01-19T19:16:48.155Z,3.07
2023-01-19T19:19:16.596Z,3.03
2023-01-19T19:21:44.736Z,2.99
2023-01-19T19:24:13.365Z,2.95
2023-01-19T19:26:41.867Z,2.95
2023-01-19T19:29:09.529Z,2.96
2023-01-19T19:31:37.574Z,2.97
2023-01-19T19:34:05.341Z,2.99
2023-01-19T19:36:33.417Z,3.01
2023-01-19T19:39:01.132Z,3.02
2023-01-19T19:41:29.380Z,3.02
2023-01-19T19:43:57.109Z,3.02
2023-01-19T19:46:26.557Z,2.99
2023-01-19T19:48:54.806Z,2.93
2023-01-19T19:51:26.968Z,2.90
2023-01-19T19:53:57.365Z,2.90
2023-01-19T19:56:27.912Z,2.89
2023-01-19T19:58:57.578Z,2.87
2023-01-19T20:01:33.540Z,2.84
2023-01-19T20:04:09.968Z,2.80
2023-01-19T20:06:44.477Z,2.79
2023-01-19T20:09:14.319Z,2.76
2023-01-19T20:11:44.449Z,2.72
2023-01-19T20:14:14.013Z,2.70
2023-01-19T20:16:42.381Z,2.70
2023-01-19T20:19:10.819Z,2.68
2023-01-19T20:21:43.794Z,2.65
2023-01-19T20:24:18.136Z,2.65
2023-01-19T20:26:50.345Z,2.62
2023-01-19T20:29:19.299Z,2.59
2023-01-19T20:31:54.055Z,2.59
2023-01-19T20:34:25.201Z,2.61
2023-01-19T20:36:54.037Z,2.58
2023-01-19T20:39:23.455Z,2.54
2023-01-19T20:41:52.492Z,2.51
2023-01-19T20:44:23.709Z,2.50
2023-01-19T20:46:51.829Z,2.51
2023-01-19T20:49:20.329Z,2.51
2023-01-19T20:51:48.208Z,2.50
2023-01-19T20:54:17.995Z,2.48
2023-01-19T20:56:45.716Z,2.47
2023-01-19T20:59:13.767Z,2.50
2023-01-19T21:01:43.199Z,2.52
2023-01-19T21:04:12.101Z,2.54
2023-01-19T21:06:41.080Z,2.56
2023-01-19T21:09:10.884Z,2.59
2023-01-19T21:11:39.400Z,2.61
2023-01-19T21:14:07.762Z,2.63
2023-01-19T21:16:35.967Z,2.64
2023-01-19T21:19:04.888Z,2.62
2023-01-19T21:21:32.685Z,2.60
2023-01-19T21:24:01.941Z,2.57
2023-01-19T21:26:30.398Z,2.56
2023-01-19T21:28:59.045Z,2.55
2023-01-19T21:31:27.892Z,2.54
2023-01-19T21:33:57.737Z,2.57
2023-01-19T21:36:26.129Z,2.61
2023-01-19T21:39:00.057Z,2.64
2023-01-19T21:41:29.811Z,2.66
2023-01-19T21:44:00.016Z,2.67
2023-01-19T21:46:33.327Z,2.70
2023-01-19T21:49:03.187Z,2.71
2023-01-19T21:51:33.758Z,2.73
2023-01-19T21:54:05.216Z,2.76
2023-01-19T21:56:34.753Z,2.78
2023-01-19T21:59:03.288Z,2.81
2023-01-19T22:01:32.830Z,2.83
2023-01-19T22:04:00.604Z,2.87
2023-01-19T22:06:28.678Z,2.89
2023-01-19T22:08:57.945Z,2.92
2023-01-19T22:11:25.759Z,2.93
2023-01-19T22:13:54.335Z,2.95
2023-01-19T22:16:23.163Z,2.96
2023-01-19T22:18:54.063Z,2.98
2023-01-19T22:21:24.767Z,3.01
2023-01-19T22:23:55.007Z,3.02
2023-01-19T22:26:22.797Z,3.00
2023-01-19T22:28:57.052Z,2.96
2023-01-19T22:31:26.353Z,2.96
2023-01-19T22:33:54.960Z,2.98
2023-01-19T22:36:25.024Z,3.00
2023-01-19T22:39:14.536Z,3.02
2023-01-19T22:41:45.647Z,3.04
2023-01-19T22:44:20.785Z,3.07
2023-01-19T22:46:50.102Z,3.09
2023-01-19T22:49:18.412Z,3.08
2023-01-19T22:51:46.873Z,3.07
2023-01-19T22:54:14.807Z,3.07
2023-01-19T22:56:42.592Z,3.07
2023-01-19T22:59:10.253Z,3.08
2023-01-19T23:01:41.553Z,3.09
2023-01-19T23:04:12.928Z,3.09
2023-01-19T23:06:41.122Z,3.09
2023-01-19T23:09:13.471Z,3.08
2023-01-19T23:11:43.828Z,3.07
2023-01-19T23:14:14.945Z,3.05
2023-01-19T23:16:42.767Z,3.06
2023-01-19T23:19:12.183Z,3.05
2023-01-19T23:21:40.666Z,3.04
2023-01-19T23:24:09.685Z,3.02
2023-01-19T23:26:38.433Z,2.97
2023-01-19T23:29:11.111Z,2.94
2023-01-19T23:31:42.269Z,2.94
2023-01-19T23:34:12.188Z,2.95
2023-01-19T23:36:41.403Z,2.94
2023-01-19T23:39:18.056Z,2.94
2023-01-19T23:41:46.209Z,2.94
2023-01-19T23:44:13.938Z,2.92
2023-01-19T23:46:41.669Z,2.92
2023-01-19T23:49:09.541Z,2.93
2023-01-19T23:51:37.283Z,2.92
2023-01-19T23:54:05.819Z,2.93
2023-01-19T23:56:36.191Z,2.94
2023-01-19T23:59:06.748Z,2.93
